KAHN/AHN METAR and TAF weather

Enter ICAO airport designator
Station Type Date Time Source
KAHN METAR 2018/01/19 16:51 UTC NOAA

KAHN 191651Z 29007KT 10SM CLR 12/M14 A3027 RMK AO2 SLP254 T01221144


Station Type Date Time Source
KAHN Decoded METAR 2018/01/19 16:51 UTC NOAA

ATHENS BEN EPPS AIRPORT, GA, United States (KAHN) 33-57N 083-20W 244M
Jan 19, 2018 - 11:51 AM EST / 2018.01.19 1651 UTC
Wind: from the WNW (290 degrees) at 8 MPH (7 KT):0
Visibility: 10 mile(s):0
Sky conditions: clear
Temperature: 54.0 F (12.2 C)
Dew Point: 6.1 F (-14.4 C)
Relative Humidity: 14%
Pressure (altimeter): 30.27 in. Hg (1025 hPa)
ob: KAHN 191651Z 29007KT 10SM CLR 12/M14 A3027 RMK AO2 SLP254 T01221144
cycle: 17

Station Type Date Time Source
KAHN TAF 2018/01/19 18:22 UTC NOAA

TAF KAHN 191720Z 1918/2018 27006KT P6SM SKC
FM200200 00000KT P6SM SKC
FM201500 28007KT P6SM SCT040


Example: see airport list